createdAt,value
2017-09-26T00:02:10.327Z,10.00
2017-09-26T00:04:38.621Z,10.10
2017-09-26T00:07:06.939Z,10.03
2017-09-26T00:09:34.462Z,10.10
2017-09-26T00:12:02.023Z,9.63
2017-09-26T00:14:29.638Z,9.13
2017-09-26T00:16:57.205Z,11.00
2017-09-26T00:19:24.729Z,9.70
2017-09-26T00:21:52.257Z,9.60
2017-09-26T00:24:19.774Z,9.90
2017-09-26T00:26:47.306Z,10.20
2017-09-26T00:29:15.177Z,9.83
2017-09-26T00:31:42.759Z,10.10
2017-09-26T00:34:10.285Z,9.30
2017-09-26T00:36:37.833Z,9.83
2017-09-26T00:39:05.365Z,9.73
2017-09-26T00:41:33.719Z,9.00
2017-09-26T00:44:01.264Z,8.80
2017-09-26T00:46:28.747Z,9.90
2017-09-26T00:48:56.231Z,8.97
2017-09-26T00:51:23.741Z,9.10
2017-09-26T00:53:51.237Z,10.07
2017-09-26T00:56:19.482Z,10.43
2017-09-26T00:58:46.991Z,9.80
2017-09-26T01:01:29.432Z,10.00
2017-09-26T01:03:56.935Z,11.00
2017-09-26T01:06:25.776Z,9.87
2017-09-26T01:09:04.108Z,9.60
2017-09-26T01:11:31.575Z,9.77
2017-09-26T01:13:59.075Z,11.30
2017-09-26T01:16:26.629Z,10.50
2017-09-26T01:18:54.203Z,10.30
2017-09-26T01:21:21.783Z,10.47
2017-09-26T01:23:49.294Z,9.40
2017-09-26T01:26:16.852Z,9.87
2017-09-26T01:28:44.381Z,9.80
2017-09-26T01:31:12.703Z,9.93
2017-09-26T01:33:40.253Z,9.83
2017-09-26T01:36:07.786Z,9.73
2017-09-26T01:38:35.353Z,10.17
2017-09-26T01:41:14.616Z,9.17
2017-09-26T01:43:42.205Z,10.80
2017-09-26T01:46:09.711Z,9.27
2017-09-26T01:48:37.282Z,11.10
2017-09-26T01:51:04.832Z,9.60
2017-09-26T01:53:33.144Z,10.33
2017-09-26T01:56:01.470Z,9.43
2017-09-26T01:58:34.691Z,9.90
2017-09-26T02:01:02.248Z,9.87
2017-09-26T02:03:29.812Z,10.93
2017-09-26T02:05:57.360Z,10.83
2017-09-26T02:08:24.921Z,10.07
2017-09-26T02:10:52.446Z,10.20
2017-09-26T02:13:19.984Z,9.00
2017-09-26T02:15:47.522Z,9.80
2017-09-26T02:18:15.521Z,9.83
2017-09-26T02:20:43.040Z,9.30
2017-09-26T02:23:10.576Z,10.03
2017-09-26T02:25:38.887Z,11.30
2017-09-26T02:28:06.434Z,10.37
2017-09-26T02:30:33.971Z,9.23
2017-09-26T02:33:01.525Z,9.50
2017-09-26T02:35:29.840Z,9.20
2017-09-26T02:37:57.374Z,9.93
2017-09-26T02:40:24.910Z,9.07
2017-09-26T02:42:53.245Z,9.60
2017-09-26T02:45:20.809Z,10.63
2017-09-26T02:47:48.366Z,9.00
2017-09-26T02:50:15.936Z,9.77
2017-09-26T02:52:43.734Z,9.97
2017-09-26T02:55:11.269Z,10.07
2017-09-26T02:57:38.819Z,9.23
2017-09-26T03:00:06.371Z,10.30
2017-09-26T03:02:33.899Z,10.90
2017-09-26T03:05:01.470Z,11.50
2017-09-26T03:07:28.998Z,9.63
2017-09-26T03:09:56.587Z,11.23
2017-09-26T03:12:24.142Z,12.30
2017-09-26T03:14:51.730Z,10.57
2017-09-26T03:17:19.294Z,11.40
2017-09-26T03:19:46.832Z,12.20
2017-09-26T03:22:14.405Z,10.40
2017-09-26T03:24:41.953Z,11.20
2017-09-26T03:27:09.527Z,12.53
2017-09-26T03:29:37.090Z,12.00
2017-09-26T03:32:04.632Z,11.20
2017-09-26T03:34:32.193Z,11.70
2017-09-26T03:36:59.766Z,10.87
2017-09-26T03:39:27.332Z,11.20
2017-09-26T03:41:54.855Z,11.10
2017-09-26T03:44:22.393Z,11.00
2017-09-26T03:46:49.941Z,11.67
2017-09-26T03:49:18.288Z,11.63
2017-09-26T03:51:45.842Z,11.53
2017-09-26T03:54:13.377Z,11.60
2017-09-26T03:56:40.938Z,11.03
2017-09-26T03:59:08.495Z,11.23
2017-09-26T04:01:36.059Z,12.37
2017-09-26T04:04:03.596Z,11.67
2017-09-26T04:06:31.135Z,12.27
2017-09-26T04:08:58.679Z,11.97
2017-09-26T04:11:26.225Z,11.27
2017-09-26T04:13:53.833Z,11.40
2017-09-26T04:16:21.414Z,13.13
2017-09-26T04:18:48.960Z,11.20
2017-09-26T04:21:16.515Z,11.73
2017-09-26T04:23:44.044Z,11.27
2017-09-26T04:26:12.368Z,10.77
2017-09-26T04:28:39.907Z,11.27
2017-09-26T04:31:07.454Z,12.47
2017-09-26T04:33:35.009Z,12.10
2017-09-26T04:36:02.573Z,10.40
2017-09-26T04:38:30.183Z,13.00
2017-09-26T04:40:57.724Z,11.40
2017-09-26T04:43:25.257Z,11.13
2017-09-26T04:45:52.802Z,9.77
2017-09-26T04:48:21.130Z,11.03
2017-09-26T04:50:48.691Z,10.27
2017-09-26T04:53:16.229Z,11.13
2017-09-26T04:55:43.812Z,10.80
2017-09-26T04:58:11.354Z,12.43
2017-09-26T05:00:38.933Z,11.10
2017-09-26T05:03:06.491Z,13.00
2017-09-26T05:05:34.054Z,12.10
2017-09-26T05:08:01.634Z,12.80
2017-09-26T05:10:29.179Z,13.37
2017-09-26T05:12:56.723Z,12.03
2017-09-26T05:15:24.268Z,12.00
2017-09-26T05:17:53.549Z,12.13
2017-09-26T05:20:21.110Z,12.93
2017-09-26T05:22:48.744Z,12.57
2017-09-26T05:25:17.059Z,13.07
2017-09-26T05:27:44.605Z,13.33
2017-09-26T05:30:12.140Z,14.40
2017-09-26T05:32:41.037Z,12.50
2017-09-26T05:35:09.344Z,13.43
2017-09-26T05:37:36.909Z,12.90
2017-09-26T05:40:04.468Z,13.70
2017-09-26T05:42:32.003Z,13.90
2017-09-26T05:44:59.529Z,12.47
2017-09-26T05:47:27.051Z,12.13
2017-09-26T05:49:54.601Z,11.87
2017-09-26T05:52:22.140Z,12.80
2017-09-26T05:54:49.719Z,11.93
2017-09-26T05:57:17.277Z,14.40
2017-09-26T05:59:44.866Z,12.10
2017-09-26T06:02:12.407Z,12.17
2017-09-26T06:04:40.371Z,10.83
2017-09-26T06:07:07.922Z,11.37
2017-09-26T06:09:35.492Z,11.53
2017-09-26T06:12:03.091Z,12.17
2017-09-26T06:14:30.783Z,11.50
2017-09-26T06:16:58.332Z,12.97
2017-09-26T06:19:25.885Z,12.37
2017-09-26T06:21:53.429Z,12.40
2017-09-26T06:24:20.970Z,12.47
2017-09-26T06:26:48.573Z,12.17
2017-09-26T06:29:16.524Z,12.40
2017-09-26T06:31:44.847Z,13.63
2017-09-26T06:34:12.410Z,11.67
2017-09-26T06:36:40.112Z,12.60
2017-09-26T06:39:07.663Z,13.13
2017-09-26T06:41:35.206Z,12.40
2017-09-26T06:44:03.055Z,13.20
2017-09-26T06:46:30.589Z,13.50
2017-09-26T06:48:58.142Z,11.47
2017-09-26T06:51:25.676Z,11.90
2017-09-26T06:53:53.986Z,11.50
2017-09-26T06:56:21.563Z,14.47
2017-09-26T06:58:49.130Z,12.33
2017-09-26T07:01:16.702Z,12.20
2017-09-26T07:03:44.263Z,12.90
2017-09-26T07:06:11.805Z,12.20
2017-09-26T07:08:39.375Z,11.63
2017-09-26T07:11:06.929Z,11.63
2017-09-26T07:13:34.476Z,11.70
2017-09-26T07:16:02.053Z,11.97
2017-09-26T07:18:29.614Z,10.43
2017-09-26T07:20:57.155Z,11.20
2017-09-26T07:23:24.671Z,11.83
2017-09-26T07:25:52.986Z,11.90
2017-09-26T07:28:20.511Z,11.80
2017-09-26T07:30:48.830Z,11.33
2017-09-26T07:33:16.353Z,11.10
2017-09-26T07:35:43.938Z,12.17
2017-09-26T07:38:11.467Z,12.43
2017-09-26T07:40:39.806Z,10.90
2017-09-26T07:43:07.356Z,11.60
2017-09-26T07:45:34.918Z,9.87
2017-09-26T07:48:02.473Z,10.27
2017-09-26T07:50:30.081Z,10.37
2017-09-26T07:52:58.412Z,11.33
2017-09-26T07:55:25.970Z,10.77
2017-09-26T07:57:53.530Z,10.97
2017-09-26T08:00:21.273Z,10.73
2017-09-26T08:02:49.144Z,11.00
2017-09-26T08:05:16.925Z,10.30
2017-09-26T08:07:44.629Z,10.70
2017-09-26T08:10:12.197Z,10.20
2017-09-26T08:12:40.509Z,10.40
2017-09-26T08:15:08.079Z,10.57
2017-09-26T08:17:35.618Z,10.77
2017-09-26T08:20:03.175Z,10.87
2017-09-26T08:22:30.739Z,10.60
2017-09-26T08:24:58.293Z,10.10
2017-09-26T08:27:25.882Z,11.30
2017-09-26T08:29:54.134Z,10.07
2017-09-26T08:32:21.697Z,11.73
2017-09-26T08:34:49.254Z,11.37
2017-09-26T08:37:16.825Z,11.63
2017-09-26T08:39:44.395Z,12.00
2017-09-26T08:42:11.950Z,10.80
2017-09-26T08:44:39.507Z,10.30
2017-09-26T08:47:07.068Z,11.70
2017-09-26T08:49:34.625Z,10.93
2017-09-26T08:52:02.182Z,10.07
2017-09-26T08:54:29.745Z,10.83
2017-09-26T08:56:57.316Z,10.93
2017-09-26T08:59:24.896Z,10.30
2017-09-26T09:01:52.440Z,11.83
2017-09-26T09:04:20.822Z,10.90
2017-09-26T09:06:48.335Z,10.60
2017-09-26T09:09:15.863Z,10.17
2017-09-26T09:11:44.186Z,9.90
2017-09-26T09:14:11.734Z,9.83
2017-09-26T09:16:39.295Z,11.17
2017-09-26T09:19:06.839Z,11.00
2017-09-26T09:21:34.386Z,9.60
2017-09-26T09:24:01.928Z,10.50
2017-09-26T09:26:30.302Z,10.37
2017-09-26T09:28:57.884Z,10.57
2017-09-26T09:31:26.178Z,9.90
2017-09-26T09:33:53.738Z,8.67
2017-09-26T09:36:21.292Z,8.87
2017-09-26T09:38:48.878Z,9.67
2017-09-26T09:41:16.429Z,9.77
2017-09-26T09:43:44.010Z,9.07
2017-09-26T09:46:11.563Z,9.53
2017-09-26T09:48:41.571Z,9.50
2017-09-26T09:51:09.119Z,9.50
2017-09-26T09:53:36.687Z,9.90
2017-09-26T09:56:04.241Z,9.20
2017-09-26T09:58:31.788Z,10.80
2017-09-26T10:00:59.330Z,9.63
2017-09-26T10:03:27.645Z,10.30
2017-09-26T10:05:55.209Z,9.00
2017-09-26T10:08:22.751Z,8.83
2017-09-26T10:10:50.323Z,9.47
2017-09-26T10:13:17.875Z,10.63
2017-09-26T10:15:45.460Z,11.30
2017-09-26T10:18:12.999Z,11.37
2017-09-26T10:20:40.569Z,10.50
2017-09-26T10:23:08.126Z,10.20
2017-09-26T10:25:35.677Z,10.17
2017-09-26T10:28:03.241Z,10.20
2017-09-26T10:30:30.799Z,10.70
2017-09-26T10:32:58.340Z,10.50
2017-09-26T10:35:25.892Z,9.33
2017-09-26T10:37:53.460Z,9.97
2017-09-26T10:40:21.022Z,9.87
2017-09-26T10:42:48.583Z,10.23
2017-09-26T10:45:16.162Z,10.37
2017-09-26T10:47:44.625Z,11.30
2017-09-26T10:50:12.249Z,12.03
2017-09-26T10:52:40.571Z,11.10
2017-09-26T10:55:08.126Z,10.53
2017-09-26T10:57:35.680Z,11.07
2017-09-26T11:00:03.247Z,10.90
2017-09-26T11:02:30.801Z,10.40
2017-09-26T11:04:59.133Z,11.70
2017-09-26T11:07:26.684Z,9.63
2017-09-26T11:09:54.324Z,10.03
2017-09-26T11:12:21.868Z,10.03
2017-09-26T11:14:49.410Z,11.20
2017-09-26T11:17:16.968Z,10.70
2017-09-26T11:19:44.848Z,11.40
2017-09-26T11:22:12.792Z,11.40
2017-09-26T11:24:40.394Z,10.97
2017-09-26T11:27:10.285Z,11.80
2017-09-26T11:29:38.334Z,11.53
2017-09-26T11:32:05.912Z,10.90
2017-09-26T11:34:33.433Z,9.90
2017-09-26T11:37:01.752Z,11.43
2017-09-26T11:39:29.330Z,10.40
2017-09-26T11:42:17.443Z,10.60
2017-09-26T11:44:46.303Z,12.40
2017-09-26T11:47:14.094Z,10.60
2017-09-26T11:49:41.696Z,10.70
2017-09-26T11:52:09.267Z,10.93
2017-09-26T11:54:36.852Z,10.57
2017-09-26T11:57:04.417Z,12.47
2017-09-26T11:59:31.992Z,12.47
2017-09-26T12:01:59.577Z,11.60
2017-09-26T12:04:27.162Z,11.10
2017-09-26T12:06:54.716Z,13.43
2017-09-26T12:09:22.280Z,12.80
2017-09-26T12:11:49.828Z,13.23
2017-09-26T12:14:17.413Z,12.50
2017-09-26T12:16:45.777Z,11.50
2017-09-26T12:19:13.386Z,11.00
2017-09-26T12:21:41.056Z,11.50
2017-09-26T12:24:08.864Z,11.07
2017-09-26T12:26:36.414Z,12.37
2017-09-26T12:29:03.984Z,13.13
2017-09-26T12:31:31.544Z,12.03
2017-09-26T12:33:59.082Z,12.03
2017-09-26T12:36:26.649Z,12.90
2017-09-26T12:38:54.210Z,13.07
2017-09-26T12:41:21.757Z,13.20
2017-09-26T12:43:49.318Z,12.87
2017-09-26T12:46:16.930Z,13.20
2017-09-26T12:48:44.485Z,12.50
2017-09-26T12:51:12.829Z,13.53
2017-09-26T12:53:40.379Z,11.70
2017-09-26T12:56:07.943Z,11.57
2017-09-26T12:58:35.520Z,13.00
2017-09-26T13:01:03.925Z,11.37
2017-09-26T13:03:31.563Z,12.47
2017-09-26T13:05:59.888Z,11.73
2017-09-26T13:08:27.458Z,13.03
2017-09-26T13:10:55.022Z,11.43
2017-09-26T13:13:22.611Z,11.93
2017-09-26T13:15:50.200Z,12.20
2017-09-26T13:18:17.761Z,12.43
2017-09-26T13:20:45.331Z,11.10
2017-09-26T13:23:12.872Z,12.70
2017-09-26T13:25:40.459Z,11.80
2017-09-26T13:28:08.009Z,12.43
2017-09-26T13:30:35.570Z,12.83
2017-09-26T13:33:03.127Z,11.63
2017-09-26T13:35:30.659Z,12.03
2017-09-26T13:37:58.981Z,11.37
2017-09-26T13:40:27.326Z,12.03
2017-09-26T13:42:54.883Z,12.40
2017-09-26T13:45:22.431Z,11.83
2017-09-26T13:47:50.016Z,10.83
2017-09-26T13:50:17.607Z,11.83
2017-09-26T13:52:45.170Z,12.30
2017-09-26T13:55:12.738Z,12.63
2017-09-26T13:57:40.304Z,11.13
2017-09-26T14:00:07.875Z,11.90
2017-09-26T14:02:35.428Z,10.53
2017-09-26T14:05:03.002Z,11.47
2017-09-26T14:07:31.347Z,11.53
2017-09-26T14:09:58.894Z,10.30
2017-09-26T14:12:26.442Z,10.80
2017-09-26T14:14:54.022Z,11.90
2017-09-26T14:17:22.017Z,13.00
2017-09-26T14:19:49.562Z,12.00
2017-09-26T14:22:17.135Z,11.03
2017-09-26T14:24:44.704Z,11.27
2017-09-26T14:27:12.266Z,11.40
2017-09-26T14:29:40.066Z,9.53
2017-09-26T14:32:07.615Z,10.20
2017-09-26T14:34:35.162Z,10.83
2017-09-26T14:37:03.557Z,11.10
2017-09-26T14:39:31.156Z,10.90
2017-09-26T14:41:58.714Z,11.50
2017-09-26T14:44:26.278Z,11.60
2017-09-26T14:46:54.078Z,10.90
2017-09-26T14:49:21.600Z,11.90
2017-09-26T14:51:49.142Z,11.10
2017-09-26T14:54:16.709Z,10.47
2017-09-26T14:56:44.254Z,10.93
2017-09-26T14:59:11.817Z,12.17
2017-09-26T15:01:39.355Z,11.77
2017-09-26T15:04:07.277Z,11.53
2017-09-26T15:06:35.609Z,10.00
2017-09-26T15:09:03.169Z,10.90
2017-09-26T15:11:30.874Z,10.53
2017-09-26T15:13:58.421Z,11.00
2017-09-26T15:16:25.981Z,10.87
2017-09-26T15:18:53.600Z,11.80
2017-09-26T15:21:21.501Z,11.40
2017-09-26T15:23:49.045Z,10.63
2017-09-26T15:26:16.602Z,10.10
2017-09-26T15:28:44.156Z,11.73
2017-09-26T15:31:11.701Z,11.80
2017-09-26T15:33:39.239Z,12.40
2017-09-26T15:36:07.536Z,12.13
2017-09-26T15:38:35.236Z,12.27
2017-09-26T15:41:02.794Z,12.60
2017-09-26T15:43:30.358Z,11.07
2017-09-26T15:45:57.957Z,12.73
2017-09-26T15:48:26.260Z,12.40
2017-09-26T15:50:53.827Z,12.60
2017-09-26T15:53:21.372Z,12.20
2017-09-26T15:55:48.936Z,10.73
2017-09-26T15:58:16.505Z,11.70
2017-09-26T16:00:44.075Z,12.10
2017-09-26T16:03:11.672Z,12.87
2017-09-26T16:05:39.251Z,12.30
2017-09-26T16:08:06.815Z,13.30
2017-09-26T16:10:35.131Z,14.63
2017-09-26T16:13:02.675Z,14.90
2017-09-26T16:15:30.267Z,15.50
2017-09-26T16:17:57.867Z,14.37
2017-09-26T16:20:26.906Z,14.53
2017-09-26T16:22:54.482Z,14.43
2017-09-26T16:25:22.052Z,15.90
2017-09-26T16:27:49.613Z,15.77
2017-09-26T16:30:17.160Z,14.80
2017-09-26T16:32:44.766Z,15.27
2017-09-26T16:35:13.078Z,15.63
2017-09-26T16:37:40.960Z,14.63
2017-09-26T16:40:08.523Z,15.70
2017-09-26T16:42:36.125Z,15.70
2017-09-26T16:45:03.679Z,13.83
2017-09-26T16:47:32.066Z,15.53
2017-09-26T16:49:59.625Z,15.10
2017-09-26T16:52:27.925Z,14.93
2017-09-26T16:54:55.512Z,15.30
2017-09-26T16:57:23.056Z,14.03
2017-09-26T16:59:50.617Z,15.70
2017-09-26T17:02:18.190Z,13.90
2017-09-26T17:04:45.741Z,14.17
2017-09-26T17:07:13.308Z,16.00
2017-09-26T17:09:40.865Z,14.63
2017-09-26T17:12:08.595Z,15.57
2017-09-26T17:14:36.162Z,16.00
2017-09-26T17:17:03.742Z,15.00
2017-09-26T17:19:31.507Z,16.77
2017-09-26T17:21:59.078Z,15.93
2017-09-26T17:24:26.651Z,16.27
2017-09-26T17:26:54.253Z,17.67
2017-09-26T17:29:21.884Z,18.10
2017-09-26T17:34:23.501Z,18.30
2017-09-26T17:36:51.050Z,17.90
2017-09-26T17:39:18.622Z,17.17
2017-09-26T17:41:46.196Z,16.77
2017-09-26T17:44:13.809Z,16.63
2017-09-26T17:46:41.375Z,15.93
2017-09-26T17:49:09.719Z,17.17
2017-09-26T17:51:37.698Z,16.60
2017-09-26T17:54:05.263Z,18.20
2017-09-26T17:56:32.878Z,16.87
2017-09-26T17:59:05.504Z,16.47
2017-09-26T18:01:33.813Z,18.60
2017-09-26T18:04:01.410Z,17.87
2017-09-26T18:06:29.724Z,19.23
2017-09-26T18:08:57.371Z,18.93
2017-09-26T18:11:24.984Z,20.10
2017-09-26T18:13:52.566Z,19.00
2017-09-26T18:16:21.797Z,18.97
2017-09-26T18:18:50.244Z,18.70
2017-09-26T18:21:18.088Z,20.07
2017-09-26T18:23:46.425Z,20.13
2017-09-26T18:26:13.995Z,18.67
2017-09-26T18:28:41.588Z,20.40
2017-09-26T18:31:09.397Z,18.57
2017-09-26T18:33:36.965Z,19.60
2017-09-26T18:36:05.356Z,19.63
2017-09-26T18:38:32.940Z,20.63
2017-09-26T18:41:00.574Z,20.90
2017-09-26T18:43:28.919Z,18.93
2017-09-26T18:45:56.492Z,19.73
2017-09-26T18:48:24.059Z,20.40
2017-09-26T18:50:51.642Z,20.00
2017-09-26T18:53:19.186Z,20.37
2017-09-26T18:55:47.548Z,19.60
2017-09-26T18:58:15.098Z,19.03
2017-09-26T19:00:43.209Z,20.53
2017-09-26T19:03:10.753Z,23.23
2017-09-26T19:05:39.328Z,21.20
2017-09-26T19:08:07.667Z,19.20
2017-09-26T19:10:35.259Z,20.03
2017-09-26T19:13:02.813Z,21.20
2017-09-26T19:15:30.367Z,20.23
2017-09-26T19:17:57.938Z,19.87
2017-09-26T19:20:25.469Z,19.60
2017-09-26T19:22:53.062Z,21.67
2017-09-26T19:25:21.457Z,21.53
2017-09-26T19:27:49.770Z,20.60
2017-09-26T19:30:17.426Z,19.70
2017-09-26T19:32:45.233Z,22.50
2017-09-26T19:35:12.801Z,21.63
2017-09-26T19:37:41.162Z,20.70
2017-09-26T19:40:08.719Z,19.50
2017-09-26T19:42:39.387Z,20.83
2017-09-26T19:45:08.304Z,23.10
2017-09-26T19:47:36.229Z,21.63
2017-09-26T19:50:03.780Z,20.97
2017-09-26T19:52:31.351Z,24.77
2017-09-26T19:55:00.440Z,27.90
2017-09-26T19:57:28.273Z,27.63
2017-09-26T19:59:55.894Z,24.57
2017-09-26T20:02:23.523Z,22.30
2017-09-26T20:04:51.876Z,22.73
2017-09-26T20:07:19.459Z,19.00
2017-09-26T20:09:47.091Z,19.80
2017-09-26T20:12:15.569Z,19.27
2017-09-26T20:14:43.130Z,19.70
2017-09-26T20:17:10.677Z,18.93
2017-09-26T20:19:38.290Z,17.37
2017-09-26T20:22:05.872Z,17.30
2017-09-26T20:24:33.471Z,16.33
2017-09-26T20:27:01.013Z,17.27
2017-09-26T20:29:28.608Z,17.17
2017-09-26T20:31:56.661Z,17.13
2017-09-26T20:34:24.253Z,17.63
2017-09-26T20:36:51.794Z,17.50
2017-09-26T20:39:19.375Z,16.80
2017-09-26T20:41:47.723Z,16.27
2017-09-26T20:44:15.305Z,17.00
2017-09-26T20:46:42.882Z,16.70
2017-09-26T20:49:10.439Z,16.10
2017-09-26T20:51:39.079Z,15.77
2017-09-26T20:54:06.643Z,17.90
2017-09-26T20:56:34.206Z,21.63
2017-09-26T20:59:01.802Z,21.63
2017-09-26T21:01:29.384Z,22.40
2017-09-26T21:03:56.980Z,21.83
2017-09-26T21:06:24.569Z,25.10
2017-09-26T21:08:53.470Z,22.73
2017-09-26T21:11:21.054Z,23.83
2017-09-26T21:13:48.591Z,23.87
2017-09-26T21:16:16.193Z,22.30
2017-09-26T21:18:43.767Z,22.10
2017-09-26T21:21:11.369Z,24.57
2017-09-26T21:23:38.913Z,22.80
2017-09-26T21:26:06.471Z,24.10
2017-09-26T21:28:34.031Z,27.90
2017-09-26T21:31:01.613Z,24.67
2017-09-26T21:33:29.284Z,21.23
2017-09-26T21:35:56.863Z,19.47
2017-09-26T21:38:24.430Z,18.50
2017-09-26T21:40:52.778Z,17.10
2017-09-26T21:43:21.429Z,19.57
2017-09-26T21:45:49.011Z,19.00
2017-09-26T21:48:16.583Z,19.47
2017-09-26T21:50:44.930Z,20.70
2017-09-26T21:53:12.494Z,19.83
2017-09-26T21:55:40.070Z,19.93
2017-09-26T21:58:07.633Z,19.50
2017-09-26T22:00:35.947Z,17.63
2017-09-26T22:03:03.525Z,17.30
2017-09-26T22:05:31.062Z,18.07
2017-09-26T22:07:58.619Z,17.30
2017-09-26T22:10:26.221Z,17.47
2017-09-26T22:12:53.766Z,17.80
2017-09-26T22:15:21.297Z,16.77
2017-09-26T22:17:48.859Z,18.57
2017-09-26T22:20:16.422Z,19.13
2017-09-26T22:22:44.048Z,17.23
2017-09-26T22:25:11.594Z,17.10
2017-09-26T22:27:39.896Z,18.30
2017-09-26T22:30:07.496Z,16.97
2017-09-26T22:32:35.065Z,18.27
2017-09-26T22:35:02.626Z,19.97
2017-09-26T22:37:30.190Z,19.20
2017-09-26T22:39:57.742Z,18.67
2017-09-26T22:42:25.331Z,16.60
2017-09-26T22:44:52.891Z,17.40
2017-09-26T22:47:20.468Z,16.70
2017-09-26T22:49:47.990Z,15.80
2017-09-26T22:52:15.582Z,17.10
2017-09-26T22:54:43.949Z,14.97
2017-09-26T22:57:11.497Z,17.13
2017-09-26T22:59:39.110Z,15.50
2017-09-26T23:02:06.705Z,15.17
2017-09-26T23:04:34.266Z,17.57
2017-09-26T23:07:01.839Z,15.70
2017-09-26T23:09:29.376Z,18.80
2017-09-26T23:11:57.664Z,19.30
2017-09-26T23:14:25.215Z,18.50
2017-09-26T23:16:53.182Z,20.07
2017-09-26T23:19:20.746Z,22.20
2017-09-26T23:21:48.284Z,22.30
2017-09-26T23:24:15.969Z,19.80
2017-09-26T23:26:43.524Z,21.17
2017-09-26T23:29:11.100Z,20.10
2017-09-26T23:31:38.638Z,20.03
2017-09-26T23:34:06.465Z,18.10
2017-09-26T23:36:34.026Z,18.30
2017-09-26T23:39:01.579Z,17.27
2017-09-26T23:41:29.149Z,16.37
2017-09-26T23:43:56.707Z,15.60
2017-09-26T23:46:24.536Z,18.77
2017-09-26T23:48:53.450Z,17.70
2017-09-26T23:51:21.011Z,18.17
2017-09-26T23:53:48.740Z,17.70
2017-09-26T23:56:17.144Z,17.70
2017-09-26T23:58:44.681Z,17.27
